sensor_id;sensor_type;location;lat;lon;timestamp;pressure;altitude;pressure_sealevel;temperature;humidity
36828;BME280;22766;48.042;11.192;2022-08-03T00:01:47;95261.84;;;15.09;100.00
36828;BME280;22766;48.042;11.192;2022-08-03T00:04:14;95255.38;;;14.82;100.00
36828;BME280;22766;48.042;11.192;2022-08-03T00:06:41;95256.59;;;14.64;100.00
36828;BME280;22766;48.042;11.192;2022-08-03T00:09:08;95258.31;;;14.49;100.00
36828;BME280;22766;48.042;11.192;2022-08-03T00:11:35;95254.75;;;14.42;100.00
36828;BME280;22766;48.042;11.192;2022-08-03T00:14:03;95259.44;;;14.46;100.00
36828;BME280;22766;48.042;11.192;2022-08-03T00:16:30;95253.88;;;14.57;100.00
36828;BME280;22766;48.042;11.192;2022-08-03T00:18:57;95254.88;;;14.56;100.00
36828;BME280;22766;48.042;11.192;2022-08-03T00:21:26;95260.75;;;14.42;100.00
36828;BME280;22766;48.042;11.192;2022-08-03T00:23:53;95257.75;;;14.23;100.00
36828;BME280;22766;48.042;11.192;2022-08-03T00:26:20;95258.59;;;14.15;100.00
36828;BME280;22766;48.042;11.192;2022-08-03T00:28:47;95253.16;;;14.25;100.00
36828;BME280;22766;48.042;11.192;2022-08-03T00:31:14;95259.66;;;14.37;100.00
36828;BME280;22766;48.042;11.192;2022-08-03T00:33:41;95265.63;;;14.45;100.00
36828;BME280;22766;48.042;11.192;2022-08-03T00:36:26;95256.03;;;14.46;100.00
36828;BME280;22766;48.042;11.192;2022-08-03T00:38:53;95255.44;;;14.36;100.00
36828;BME280;22766;48.042;11.192;2022-08-03T00:41:20;95248.97;;;14.32;100.00
36828;BME280;22766;48.042;11.192;2022-08-03T00:43:47;95243.78;;;14.32;100.00
36828;BME280;22766;48.042;11.192;2022-08-03T00:46:14;95244.09;;;14.29;100.00
36828;BME280;22766;48.042;11.192;2022-08-03T00:48:48;95252.41;;;14.16;100.00
36828;BME280;22766;48.042;11.192;2022-08-03T00:51:15;95245.75;;;14.14;100.00
36828;BME280;22766;48.042;11.192;2022-08-03T00:53:42;95254.38;;;14.06;100.00
36828;BME280;22766;48.042;11.192;2022-08-03T00:56:12;95246.28;;;14.01;100.00
36828;BME280;22766;48.042;11.192;2022-08-03T00:58:40;95246.94;;;14.03;100.00
36828;BME280;22766;48.042;11.192;2022-08-03T01:01:09;95245.28;;;14.10;100.00
36828;BME280;22766;48.042;11.192;2022-08-03T01:03:38;95243.03;;;14.07;100.00
36828;BME280;22766;48.042;11.192;2022-08-03T01:09:40;95243.84;;;13.99;100.00
36828;BME280;22766;48.042;11.192;2022-08-03T01:12:28;95237.88;;;13.91;100.00
36828;BME280;22766;48.042;11.192;2022-08-03T01:15:22;95238.22;;;13.88;100.00
36828;BME280;22766;48.042;11.192;2022-08-03T01:20:19;95231.38;;;13.87;100.00
36828;BME280;22766;48.042;11.192;2022-08-03T01:22:59;95230.59;;;13.86;100.00
36828;BME280;22766;48.042;11.192;2022-08-03T01:31:23;95233.34;;;13.85;100.00
36828;BME280;22766;48.042;11.192;2022-08-03T01:34:04;95232.19;;;13.87;100.00
36828;BME280;22766;48.042;11.192;2022-08-03T01:36:43;95233.00;;;13.88;100.00
36828;BME280;22766;48.042;11.192;2022-08-03T01:39:14;95228.84;;;13.79;100.00
36828;BME280;22766;48.042;11.192;2022-08-03T01:41:48;95220.59;;;13.67;100.00
36828;BME280;22766;48.042;11.192;2022-08-03T01:44:16;95224.13;;;13.66;100.00
36828;BME280;22766;48.042;11.192;2022-08-03T01:47:00;95226.91;;;13.73;100.00
36828;BME280;22766;48.042;11.192;2022-08-03T01:49:29;95227.66;;;13.81;100.00
36828;BME280;22766;48.042;11.192;2022-08-03T01:51:58;95217.63;;;13.86;100.00
36828;BME280;22766;48.042;11.192;2022-08-03T01:54:36;95212.75;;;13.75;100.00
36828;BME280;22766;48.042;11.192;2022-08-03T01:57:06;95221.53;;;13.74;100.00
36828;BME280;22766;48.042;11.192;2022-08-03T01:59:35;95222.50;;;13.73;100.00
36828;BME280;22766;48.042;11.192;2022-08-03T02:02:04;95223.13;;;13.75;100.00
36828;BME280;22766;48.042;11.192;2022-08-03T02:04:53;95215.84;;;13.79;100.00
36828;BME280;22766;48.042;11.192;2022-08-03T02:07:22;95221.88;;;13.71;100.00
36828;BME280;22766;48.042;11.192;2022-08-03T02:09:50;95217.53;;;13.48;100.00
36828;BME280;22766;48.042;11.192;2022-08-03T02:12:19;95226.94;;;13.33;100.00
36828;BME280;22766;48.042;11.192;2022-08-03T02:14:47;95226.94;;;13.33;100.00
36828;BME280;22766;48.042;11.192;2022-08-03T02:17:15;95226.94;;;13.41;100.00
36828;BME280;22766;48.042;11.192;2022-08-03T02:19:42;95226.59;;;13.44;100.00
36828;BME280;22766;48.042;11.192;2022-08-03T02:22:10;95224.81;;;13.28;100.00
36828;BME280;22766;48.042;11.192;2022-08-03T02:24:38;95221.91;;;13.23;100.00
36828;BME280;22766;48.042;11.192;2022-08-03T02:27:13;95229.38;;;13.26;100.00
36828;BME280;22766;48.042;11.192;2022-08-03T02:29:45;95219.16;;;13.25;100.00
36828;BME280;22766;48.042;11.192;2022-08-03T02:32:18;95224.53;;;13.31;100.00
36828;BME280;22766;48.042;11.192;2022-08-03T02:34:48;95225.66;;;13.29;100.00
36828;BME280;22766;48.042;11.192;2022-08-03T02:37:18;95229.38;;;13.26;100.00
36828;BME280;22766;48.042;11.192;2022-08-03T02:39:45;95226.63;;;13.20;100.00
36828;BME280;22766;48.042;11.192;2022-08-03T02:42:15;95219.31;;;13.15;100.00
36828;BME280;22766;48.042;11.192;2022-08-03T02:44:47;95225.66;;;13.13;100.00
36828;BME280;22766;48.042;11.192;2022-08-03T02:47:15;95225.47;;;13.06;100.00
36828;BME280;22766;48.042;11.192;2022-08-03T02:49:47;95223.84;;;13.13;100.00
36828;BME280;22766;48.042;11.192;2022-08-03T02:52:23;95224.84;;;13.12;100.00
36828;BME280;22766;48.042;11.192;2022-08-03T02:54:53;95220.47;;;13.04;100.00
36828;BME280;22766;48.042;11.192;2022-08-03T02:57:21;95215.47;;;13.03;100.00
36828;BME280;22766;48.042;11.192;2022-08-03T02:59:49;95226.31;;;13.06;100.00
36828;BME280;22766;48.042;11.192;2022-08-03T03:02:17;95220.78;;;13.09;100.00
36828;BME280;22766;48.042;11.192;2022-08-03T03:04:45;95224.19;;;13.10;100.00
36828;BME280;22766;48.042;11.192;2022-08-03T03:07:33;95225.16;;;13.09;100.00
36828;BME280;22766;48.042;11.192;2022-08-03T03:10:17;95221.78;;;13.08;100.00
36828;BME280;22766;48.042;11.192;2022-08-03T03:12:44;95216.59;;;13.08;100.00
36828;BME280;22766;48.042;11.192;2022-08-03T03:15:11;95221.44;;;13.11;100.00
36828;BME280;22766;48.042;11.192;2022-08-03T03:17:38;95221.91;;;13.07;100.00
36828;BME280;22766;48.042;11.192;2022-08-03T03:20:06;95214.94;;;13.07;100.00
36828;BME280;22766;48.042;11.192;2022-08-03T03:22:34;95216.25;;;13.03;100.00
36828;BME280;22766;48.042;11.192;2022-08-03T03:25:01;95212.31;;;12.99;100.00
36828;BME280;22766;48.042;11.192;2022-08-03T03:27:28;95216.38;;;12.94;100.00
36828;BME280;22766;48.042;11.192;2022-08-03T03:29:56;95215.22;;;12.88;100.00
36828;BME280;22766;48.042;11.192;2022-08-03T03:32:26;95221.56;;;12.94;100.00
36828;BME280;22766;48.042;11.192;2022-08-03T03:34:53;95218.50;;;12.98;100.00
36828;BME280;22766;48.042;11.192;2022-08-03T03:37:21;95221.25;;;13.05;100.00
36828;BME280;22766;48.042;11.192;2022-08-03T03:39:47;95212.19;;;13.01;100.00
36828;BME280;22766;48.042;11.192;2022-08-03T03:42:14;95212.47;;;12.98;100.00
36828;BME280;22766;48.042;11.192;2022-08-03T03:44:41;95204.72;;;12.98;100.00
36828;BME280;22766;48.042;11.192;2022-08-03T03:47:08;95210.06;;;12.96;100.00
36828;BME280;22766;48.042;11.192;2022-08-03T03:49:36;95209.91;;;12.98;100.00
36828;BME280;22766;48.042;11.192;2022-08-03T03:52:03;95209.88;;;12.90;100.00
36828;BME280;22766;48.042;11.192;2022-08-03T03:54:40;95207.59;;;12.79;100.00
36828;BME280;22766;48.042;11.192;2022-08-03T03:57:08;95206.00;;;12.78;100.00
36828;BME280;22766;48.042;11.192;2022-08-03T03:59:45;95208.75;;;12.76;100.00
36828;BME280;22766;48.042;11.192;2022-08-03T04:02:12;95209.53;;;12.77;100.00
36828;BME280;22766;48.042;11.192;2022-08-03T04:04:39;95208.25;;;12.73;100.00
36828;BME280;22766;48.042;11.192;2022-08-03T04:07:26;95213.28;;;12.66;100.00
36828;BME280;22766;48.042;11.192;2022-08-03T04:10:18;95216.34;;;12.70;100.00
36828;BME280;22766;48.042;11.192;2022-08-03T04:13:09;95220.06;;;12.75;100.00
36828;BME280;22766;48.042;11.192;2022-08-03T04:15:38;95222.19;;;12.72;100.00
36828;BME280;22766;48.042;11.192;2022-08-03T04:18:12;95218.97;;;12.78;100.00
36828;BME280;22766;48.042;11.192;2022-08-03T04:20:44;95224.47;;;12.83;100.00
36828;BME280;22766;48.042;11.192;2022-08-03T04:23:15;95227.88;;;12.91;100.00
36828;BME280;22766;48.042;11.192;2022-08-03T04:25:48;95219.66;;;13.04;100.00
36828;BME280;22766;48.042;11.192;2022-08-03T04:28:17;95219.66;;;13.12;100.00
36828;BME280;22766;48.042;11.192;2022-08-03T04:30:58;95212.03;;;13.27;100.00
36828;BME280;22766;48.042;11.192;2022-08-03T04:33:26;95218.50;;;13.31;100.00
36828;BME280;22766;48.042;11.192;2022-08-03T04:35:58;95225.66;;;13.37;100.00
36828;BME280;22766;48.042;11.192;2022-08-03T04:38:30;95221.59;;;13.42;100.00
36828;BME280;22766;48.042;11.192;2022-08-03T04:40:58;95223.19;;;13.51;100.00
36828;BME280;22766;48.042;11.192;2022-08-03T04:43:27;95220.75;;;13.58;100.00
36828;BME280;22766;48.042;11.192;2022-08-03T04:45:55;95223.84;;;13.61;100.00
36828;BME280;22766;48.042;11.192;2022-08-03T04:48:22;95234.69;;;13.65;100.00
36828;BME280;22766;48.042;11.192;2022-08-03T04:50:52;95227.06;;;13.71;100.00
36828;BME280;22766;48.042;11.192;2022-08-03T04:53:20;95228.19;;;13.77;100.00
36828;BME280;22766;48.042;11.192;2022-08-03T04:55:47;95233.84;;;13.80;100.00
36828;BME280;22766;48.042;11.192;2022-08-03T04:58:13;95229.78;;;13.86;100.00
36828;BME280;22766;48.042;11.192;2022-08-03T05:00:43;95232.66;;;13.91;100.00
36828;BME280;22766;48.042;11.192;2022-08-03T05:03:11;95233.47;;;13.99;100.00
36828;BME280;22766;48.042;11.192;2022-08-03T05:05:53;95242.69;;;14.10;100.00
36828;BME280;22766;48.042;11.192;2022-08-03T05:08:36;95242.63;;;14.26;100.00
36828;BME280;22766;48.042;11.192;2022-08-03T05:11:14;95234.78;;;14.42;100.00
36828;BME280;22766;48.042;11.192;2022-08-03T05:13:40;95246.72;;;14.59;100.00
36828;BME280;22766;48.042;11.192;2022-08-03T05:16:07;95242.09;;;14.77;100.00
36828;BME280;22766;48.042;11.192;2022-08-03T05:18:34;95246.66;;;14.98;100.00
36828;BME280;22766;48.042;11.192;2022-08-03T05:21:01;95246.19;;;15.17;100.00
36828;BME280;22766;48.042;11.192;2022-08-03T05:23:28;95254.00;;;15.40;100.00
36828;BME280;22766;48.042;11.192;2022-08-03T05:25:54;95248.97;;;15.61;100.00
36828;BME280;22766;48.042;11.192;2022-08-03T05:28:22;95245.84;;;15.80;100.00
36828;BME280;22766;48.042;11.192;2022-08-03T05:30:49;95252.31;;;15.99;100.00
36828;BME280;22766;48.042;11.192;2022-08-03T05:33:16;95253.78;;;16.16;100.00
36828;BME280;22766;48.042;11.192;2022-08-03T05:35:42;95248.53;;;16.30;100.00
36828;BME280;22766;48.042;11.192;2022-08-03T05:38:28;95249.97;;;16.47;100.00
36828;BME280;22766;48.042;11.192;2022-08-03T05:41:01;95250.00;;;16.62;100.00
36828;BME280;22766;48.042;11.192;2022-08-03T05:43:48;95252.19;;;16.79;100.00
36828;BME280;22766;48.042;11.192;2022-08-03T05:46:15;95253.75;;;16.95;100.00
36828;BME280;22766;48.042;11.192;2022-08-03T05:48:42;95251.91;;;17.10;100.00
36828;BME280;22766;48.042;11.192;2022-08-03T05:51:09;95252.31;;;17.28;100.00
36828;BME280;22766;48.042;11.192;2022-08-03T05:53:38;95251.22;;;17.44;100.00
36828;BME280;22766;48.042;11.192;2022-08-03T05:56:05;95251.19;;;17.58;100.00
36828;BME280;22766;48.042;11.192;2022-08-03T05:58:49;95254.72;;;17.72;100.00
36828;BME280;22766;48.042;11.192;2022-08-03T06:01:18;95250.81;;;17.89;100.00
36828;BME280;22766;48.042;11.192;2022-08-03T06:03:48;95253.94;;;18.06;100.00
36828;BME280;22766;48.042;11.192;2022-08-03T06:06:15;95248.78;;;18.19;100.00
36828;BME280;22766;48.042;11.192;2022-08-03T06:08:43;95260.06;;;18.19;100.00
36828;BME280;22766;48.042;11.192;2022-08-03T06:11:11;95250.44;;;18.26;100.00
36828;BME280;22766;48.042;11.192;2022-08-03T06:13:38;95255.41;;;18.49;100.00
36828;BME280;22766;48.042;11.192;2022-08-03T06:16:05;95260.34;;;18.65;100.00
36828;BME280;22766;48.042;11.192;2022-08-03T06:18:32;95251.56;;;18.86;100.00
36828;BME280;22766;48.042;11.192;2022-08-03T06:21:00;95254.19;;;18.99;100.00
36828;BME280;22766;48.042;11.192;2022-08-03T06:23:42;95254.44;;;19.17;100.00
36828;BME280;22766;48.042;11.192;2022-08-03T06:26:19;95252.09;;;19.35;100.00
36828;BME280;22766;48.042;11.192;2022-08-03T06:28:45;95255.72;;;19.53;100.00
36828;BME280;22766;48.042;11.192;2022-08-03T06:31:20;95254.75;;;19.68;100.00
36828;BME280;22766;48.042;11.192;2022-08-03T06:33:49;95257.16;;;19.82;100.00
36828;BME280;22766;48.042;11.192;2022-08-03T06:36:35;95258.78;;;19.77;100.00
36828;BME280;22766;48.042;11.192;2022-08-03T06:39:03;95259.56;;;19.90;100.00
36828;BME280;22766;48.042;11.192;2022-08-03T06:41:29;95258.56;;;19.98;100.00
36828;BME280;22766;48.042;11.192;2022-08-03T06:44:06;95259.94;;;20.07;100.00
36828;BME280;22766;48.042;11.192;2022-08-03T06:46:35;95253.72;;;20.21;100.00
36828;BME280;22766;48.042;11.192;2022-08-03T06:49:02;95253.66;;;20.47;100.00
36828;BME280;22766;48.042;11.192;2022-08-03T06:51:29;95265.69;;;20.61;100.00
36828;BME280;22766;48.042;11.192;2022-08-03T06:54:16;95259.41;;;20.75;100.00
36828;BME280;22766;48.042;11.192;2022-08-03T06:56:43;95252.03;;;20.97;100.00
36828;BME280;22766;48.042;11.192;2022-08-03T06:59:09;95256.28;;;20.98;100.00
36828;BME280;22766;48.042;11.192;2022-08-03T07:01:56;95258.78;;;21.24;100.00
36828;BME280;22766;48.042;11.192;2022-08-03T07:04:23;95262.50;;;21.41;100.00
36828;BME280;22766;48.042;11.192;2022-08-03T07:06:49;95250.66;;;21.63;100.00
36828;BME280;22766;48.042;11.192;2022-08-03T07:09:16;95254.84;;;21.71;100.00
36828;BME280;22766;48.042;11.192;2022-08-03T07:11:43;95254.09;;;21.88;100.00
36828;BME280;22766;48.042;11.192;2022-08-03T07:14:09;95249.94;;;22.23;100.00
36828;BME280;22766;48.042;11.192;2022-08-03T07:16:36;95250.84;;;22.54;100.00
36828;BME280;22766;48.042;11.192;2022-08-03T07:19:03;95240.38;;;22.83;100.00
36828;BME280;22766;48.042;11.192;2022-08-03T07:21:30;95242.34;;;23.06;100.00
36828;BME280;22766;48.042;11.192;2022-08-03T07:23:56;95253.13;;;23.16;100.00
36828;BME280;22766;48.042;11.192;2022-08-03T07:26:23;95243.75;;;23.20;100.00
36828;BME280;22766;48.042;11.192;2022-08-03T07:28:50;95238.78;;;23.12;98.69
36828;BME280;22766;48.042;11.192;2022-08-03T07:31:16;95242.28;;;23.42;96.52
36828;BME280;22766;48.042;11.192;2022-08-03T07:33:43;95234.75;;;23.69;92.11
36828;BME280;22766;48.042;11.192;2022-08-03T07:36:09;95234.31;;;23.83;86.31
36828;BME280;22766;48.042;11.192;2022-08-03T07:38:36;95240.53;;;24.00;90.26
36828;BME280;22766;48.042;11.192;2022-08-03T07:41:03;95244.56;;;24.15;89.63
36828;BME280;22766;48.042;11.192;2022-08-03T07:43:29;95234.47;;;24.12;83.00
36828;BME280;22766;48.042;11.192;2022-08-03T07:45:56;95236.44;;;24.28;83.73
36828;BME280;22766;48.042;11.192;2022-08-03T07:48:23;95234.41;;;24.69;81.89
36828;BME280;22766;48.042;11.192;2022-08-03T07:50:49;95234.09;;;25.06;75.58
36828;BME280;22766;48.042;11.192;2022-08-03T07:53:17;95236.97;;;25.32;73.92
36828;BME280;22766;48.042;11.192;2022-08-03T07:55:44;95235.22;;;25.38;73.04
36828;BME280;22766;48.042;11.192;2022-08-03T07:58:11;95233.66;;;25.25;74.83
36828;BME280;22766;48.042;11.192;2022-08-03T08:00:47;95224.22;;;25.29;68.42
36828;BME280;22766;48.042;11.192;2022-08-03T08:03:14;95233.25;;;25.45;70.38
36828;BME280;22766;48.042;11.192;2022-08-03T08:05:41;95228.06;;;25.66;66.00
36828;BME280;22766;48.042;11.192;2022-08-03T08:08:07;95231.50;;;25.83;62.04
36828;BME280;22766;48.042;11.192;2022-08-03T08:10:34;95229.91;;;25.99;62.63
36828;BME280;22766;48.042;11.192;2022-08-03T08:13:02;95226.41;;;26.27;61.12
36828;BME280;22766;48.042;11.192;2022-08-03T08:15:29;95224.69;;;25.87;58.47
36828;BME280;22766;48.042;11.192;2022-08-03T08:17:58;95220.03;;;26.28;60.58
36828;BME280;22766;48.042;11.192;2022-08-03T08:20:31;95224.97;;;26.57;57.00
36828;BME280;22766;48.042;11.192;2022-08-03T08:23:03;95221.69;;;26.50;58.33
36828;BME280;22766;48.042;11.192;2022-08-03T08:25:50;95223.69;;;26.82;56.08
36828;BME280;22766;48.042;11.192;2022-08-03T08:28:18;95219.94;;;26.99;56.81
36828;BME280;22766;48.042;11.192;2022-08-03T08:30:59;95223.97;;;26.80;51.95
36828;BME280;22766;48.042;11.192;2022-08-03T08:33:26;95220.72;;;27.00;51.82
36828;BME280;22766;48.042;11.192;2022-08-03T08:36:07;95218.06;;;27.21;53.83
36828;BME280;22766;48.042;11.192;2022-08-03T08:38:41;95219.06;;;27.42;49.93
36828;BME280;22766;48.042;11.192;2022-08-03T08:41:10;95209.34;;;26.99;47.19
36828;BME280;22766;48.042;11.192;2022-08-03T08:43:38;95211.00;;;26.84;49.86
36828;BME280;22766;48.042;11.192;2022-08-03T08:46:05;95214.03;;;27.19;49.84
36828;BME280;22766;48.042;11.192;2022-08-03T08:48:39;95212.06;;;27.31;53.55
36828;BME280;22766;48.042;11.192;2022-08-03T08:51:07;95213.19;;;27.35;52.34
36828;BME280;22766;48.042;11.192;2022-08-03T08:53:36;95214.03;;;27.72;48.54
36828;BME280;22766;48.042;11.192;2022-08-03T08:56:04;95212.16;;;27.67;44.82
36828;BME280;22766;48.042;11.192;2022-08-03T08:58:37;95211.31;;;27.62;48.81
36828;BME280;22766;48.042;11.192;2022-08-03T09:01:04;95207.75;;;27.83;47.46
36828;BME280;22766;48.042;11.192;2022-08-03T09:03:34;95204.50;;;28.03;46.73
36828;BME280;22766;48.042;11.192;2022-08-03T09:06:01;95205.59;;;28.07;46.60
36828;BME280;22766;48.042;11.192;2022-08-03T09:08:30;95206.78;;;28.31;43.75
36828;BME280;22766;48.042;11.192;2022-08-03T09:10:57;95209.19;;;28.32;44.86
36828;BME280;22766;48.042;11.192;2022-08-03T09:13:24;95205.13;;;28.62;43.92
36828;BME280;22766;48.042;11.192;2022-08-03T09:16:19;95203.25;;;28.57;44.93
36828;BME280;22766;48.042;11.192;2022-08-03T09:18:53;95211.88;;;28.84;45.33
36828;BME280;22766;48.042;11.192;2022-08-03T09:24:05;95218.59;;;29.07;38.99
36828;BME280;22766;48.042;11.192;2022-08-03T09:26:49;95218.69;;;29.32;38.02
36828;BME280;22766;48.042;11.192;2022-08-03T09:29:20;95215.16;;;29.11;36.83
36828;BME280;22766;48.042;11.192;2022-08-03T09:31:47;95210.97;;;29.35;37.15
36828;BME280;22766;48.042;11.192;2022-08-03T09:34:16;95215.25;;;29.41;34.96
36828;BME280;22766;48.042;11.192;2022-08-03T09:36:47;95215.78;;;29.43;35.68
36828;BME280;22766;48.042;11.192;2022-08-03T09:42:16;95226.41;;;29.28;38.03
36828;BME280;22766;48.042;11.192;2022-08-03T09:44:46;95217.91;;;29.36;36.66
36828;BME280;22766;48.042;11.192;2022-08-03T09:47:15;95216.47;;;29.04;35.85
36828;BME280;22766;48.042;11.192;2022-08-03T09:49:56;95223.84;;;28.87;36.25
36828;BME280;22766;48.042;11.192;2022-08-03T09:55:14;95211.53;;;29.68;37.56
36828;BME280;22766;48.042;11.192;2022-08-03T09:58:05;95218.50;;;29.74;34.60
36828;BME280;22766;48.042;11.192;2022-08-03T10:00:52;95211.31;;;29.74;35.31
36828;BME280;22766;48.042;11.192;2022-08-03T10:03:21;95214.53;;;29.76;32.77
36828;BME280;22766;48.042;11.192;2022-08-03T10:05:48;95212.66;;;29.97;33.46
36828;BME280;22766;48.042;11.192;2022-08-03T10:08:17;95206.78;;;30.20;32.83
36828;BME280;22766;48.042;11.192;2022-08-03T10:10:46;95203.06;;;29.96;31.13
36828;BME280;22766;48.042;11.192;2022-08-03T10:13:16;95200.13;;;30.12;32.30
36828;BME280;22766;48.042;11.192;2022-08-03T10:15:44;95203.84;;;30.06;31.59
36828;BME280;22766;48.042;11.192;2022-08-03T10:18:31;95202.25;;;30.15;30.26
36828;BME280;22766;48.042;11.192;2022-08-03T10:21:02;95196.59;;;29.21;31.76
36828;BME280;22766;48.042;11.192;2022-08-03T10:23:33;95201.97;;;29.62;32.69
36828;BME280;22766;48.042;11.192;2022-08-03T10:26:02;95202.53;;;29.89;32.84
36828;BME280;22766;48.042;11.192;2022-08-03T10:28:35;95201.22;;;29.91;32.31
36828;BME280;22766;48.042;11.192;2022-08-03T10:31:10;95198.53;;;30.16;34.36
36828;BME280;22766;48.042;11.192;2022-08-03T10:33:42;95188.09;;;30.50;31.36
36828;BME280;22766;48.042;11.192;2022-08-03T10:36:21;95190.22;;;30.48;32.59
36828;BME280;22766;48.042;11.192;2022-08-03T10:38:51;95191.22;;;30.67;32.50
36828;BME280;22766;48.042;11.192;2022-08-03T10:41:20;95190.78;;;30.45;31.41
36828;BME280;22766;48.042;11.192;2022-08-03T10:44:16;95186.53;;;30.19;31.71
36828;BME280;22766;48.042;11.192;2022-08-03T10:46:44;95183.59;;;30.25;29.53
36828;BME280;22766;48.042;11.192;2022-08-03T10:49:14;95178.53;;;30.24;31.47
36828;BME280;22766;48.042;11.192;2022-08-03T10:52:25;95175.09;;;30.33;30.53
36828;BME280;22766;48.042;11.192;2022-08-03T10:55:01;95175.06;;;30.38;29.21
36828;BME280;22766;48.042;11.192;2022-08-03T11:00:24;95173.97;;;30.39;31.99
36828;BME280;22766;48.042;11.192;2022-08-03T11:03:16;95168.91;;;30.48;31.44
36828;BME280;22766;48.042;11.192;2022-08-03T11:05:46;95172.69;;;30.27;30.51
36828;BME280;22766;48.042;11.192;2022-08-03T11:08:25;95170.28;;;30.35;32.13
36828;BME280;22766;48.042;11.192;2022-08-03T11:10:57;95168.06;;;30.58;33.83
36828;BME280;22766;48.042;11.192;2022-08-03T11:13:25;95171.97;;;30.80;33.09
36828;BME280;22766;48.042;11.192;2022-08-03T11:15:55;95172.72;;;30.96;30.76
36828;BME280;22766;48.042;11.192;2022-08-03T11:18:28;95164.06;;;31.19;31.78
36828;BME280;22766;48.042;11.192;2022-08-03T11:20:59;95163.16;;;31.34;32.04
36828;BME280;22766;48.042;11.192;2022-08-03T11:23:44;95163.63;;;31.51;32.11
36828;BME280;22766;48.042;11.192;2022-08-03T11:26:32;95158.66;;;31.68;30.08
36828;BME280;22766;48.042;11.192;2022-08-03T11:29:28;95162.72;;;31.99;30.19
36828;BME280;22766;48.042;11.192;2022-08-03T11:31:55;95154.31;;;31.77;27.54
36828;BME280;22766;48.042;11.192;2022-08-03T11:34:22;95158.78;;;31.86;27.76
36828;BME280;22766;48.042;11.192;2022-08-03T11:37:18;95154.44;;;31.95;26.87
36828;BME280;22766;48.042;11.192;2022-08-03T11:39:53;95152.41;;;32.40;28.53
36828;BME280;22766;48.042;11.192;2022-08-03T11:44:51;95155.75;;;32.74;25.95
36828;BME280;22766;48.042;11.192;2022-08-03T11:47:19;95153.09;;;32.74;22.98
36828;BME280;22766;48.042;11.192;2022-08-03T11:49:48;95150.41;;;33.35;24.40
36828;BME280;22766;48.042;11.192;2022-08-03T11:52:16;95147.59;;;33.26;24.70
36828;BME280;22766;48.042;11.192;2022-08-03T11:54:43;95150.16;;;34.19;24.83
36828;BME280;22766;48.042;11.192;2022-08-03T11:57:10;95149.00;;;34.52;22.68
36828;BME280;22766;48.042;11.192;2022-08-03T11:59:37;95144.69;;;34.78;21.41
36828;BME280;22766;48.042;11.192;2022-08-03T12:02:12;95141.44;;;34.81;23.24
36828;BME280;22766;48.042;11.192;2022-08-03T12:04:57;95138.31;;;35.51;23.53
36828;BME280;22766;48.042;11.192;2022-08-03T12:07:28;95138.19;;;35.20;23.61
36828;BME280;22766;48.042;11.192;2022-08-03T12:10:15;95138.53;;;35.41;22.93
36828;BME280;22766;48.042;11.192;2022-08-03T12:12:42;95138.16;;;36.22;22.77
36828;BME280;22766;48.042;11.192;2022-08-03T12:15:12;95141.03;;;37.21;21.28
36828;BME280;22766;48.042;11.192;2022-08-03T12:17:39;95131.41;;;36.33;22.83
36828;BME280;22766;48.042;11.192;2022-08-03T12:20:08;95129.19;;;36.35;20.64
36828;BME280;22766;48.042;11.192;2022-08-03T12:22:39;95127.59;;;35.95;22.12
36828;BME280;22766;48.042;11.192;2022-08-03T12:25:07;95126.38;;;36.80;21.86
36828;BME280;22766;48.042;11.192;2022-08-03T12:27:35;95123.97;;;36.78;22.48
36828;BME280;22766;48.042;11.192;2022-08-03T12:30:03;95121.53;;;35.67;20.96
36828;BME280;22766;48.042;11.192;2022-08-03T12:32:30;95125.78;;;36.13;22.52
36828;BME280;22766;48.042;11.192;2022-08-03T12:34:57;95123.03;;;36.83;22.01
36828;BME280;22766;48.042;11.192;2022-08-03T12:37:27;95124.28;;;37.41;22.12
36828;BME280;22766;48.042;11.192;2022-08-03T12:39:59;95125.00;;;37.16;21.56
36828;BME280;22766;48.042;11.192;2022-08-03T12:42:37;95131.78;;;35.88;21.74
36828;BME280;22766;48.042;11.192;2022-08-03T12:45:40;95119.75;;;35.85;21.00
36828;BME280;22766;48.042;11.192;2022-08-03T12:48:08;95122.00;;;37.09;20.31
36828;BME280;22766;48.042;11.192;2022-08-03T12:50:37;95119.97;;;37.83;20.48
36828;BME280;22766;48.042;11.192;2022-08-03T12:53:06;95118.63;;;39.19;20.83
36828;BME280;22766;48.042;11.192;2022-08-03T12:55:37;95121.84;;;40.07;17.93
36828;BME280;22766;48.042;11.192;2022-08-03T12:58:32;95120.16;;;39.00;20.55
36828;BME280;22766;48.042;11.192;2022-08-03T13:01:04;95117.31;;;38.96;19.96
36828;BME280;22766;48.042;11.192;2022-08-03T13:03:44;95115.81;;;38.87;19.47
36828;BME280;22766;48.042;11.192;2022-08-03T13:06:21;95110.25;;;40.19;19.28
36828;BME280;22766;48.042;11.192;2022-08-03T13:08:48;95111.19;;;39.58;18.16
36828;BME280;22766;48.042;11.192;2022-08-03T13:11:27;95114.47;;;39.43;17.60
36828;BME280;22766;48.042;11.192;2022-08-03T13:14:13;95116.50;;;39.66;18.68
36828;BME280;22766;48.042;11.192;2022-08-03T13:16:46;95113.97;;;38.70;16.88
36828;BME280;22766;48.042;11.192;2022-08-03T13:19:12;95108.72;;;37.90;19.39
36828;BME280;22766;48.042;11.192;2022-08-03T13:21:42;95115.53;;;39.09;18.28
36828;BME280;22766;48.042;11.192;2022-08-03T13:24:28;95122.19;;;39.03;17.76
36828;BME280;22766;48.042;11.192;2022-08-03T13:26:55;95115.44;;;39.17;18.41
36828;BME280;22766;48.042;11.192;2022-08-03T13:29:22;95109.19;;;40.68;17.71
36828;BME280;22766;48.042;11.192;2022-08-03T13:31:49;95105.19;;;40.18;16.99
36828;BME280;22766;48.042;11.192;2022-08-03T13:34:16;95105.97;;;39.53;17.60